sensor_id;sensor_type;location;lat;lon;timestamp;P1;durP1;ratioP1;P2;durP2;ratioP2
62861;SDS011;48953;53.110;5.592;2024-03-23T00:53:02;28.30;;;9.60;;
62861;SDS011;48953;53.110;5.592;2024-03-23T00:55:28;28.75;;;9.20;;
62861;SDS011;48953;53.110;5.592;2024-03-23T00:57:54;28.33;;;8.05;;
62861;SDS011;48953;53.110;5.592;2024-03-23T01:00:20;26.40;;;7.72;;
62861;SDS011;48953;53.110;5.592;2024-03-23T01:02:46;22.67;;;7.07;;
62861;SDS011;48953;53.110;5.592;2024-03-23T01:05:12;21.75;;;6.88;;
62861;SDS011;48953;53.110;5.592;2024-03-23T01:07:38;23.30;;;6.05;;
62861;SDS011;48953;53.110;5.592;2024-03-23T01:10:04;27.13;;;7.25;;
62861;SDS011;48953;53.110;5.592;2024-03-23T01:12:30;25.90;;;7.60;;
62861;SDS011;48953;53.110;5.592;2024-03-23T01:14:56;28.73;;;8.85;;
62861;SDS011;48953;53.110;5.592;2024-03-23T01:17:22;24.67;;;8.43;;
62861;SDS011;48953;53.110;5.592;2024-03-23T01:19:48;22.17;;;7.55;;
62861;SDS011;48953;53.110;5.592;2024-03-23T01:22:14;25.73;;;7.65;;
62861;SDS011;48953;53.110;5.592;2024-03-23T01:24:40;28.85;;;7.72;;
62861;SDS011;48953;53.110;5.592;2024-03-23T01:27:06;26.27;;;6.72;;
62861;SDS011;48953;53.110;5.592;2024-03-23T01:29:32;32.55;;;6.25;;
62861;SDS011;48953;53.110;5.592;2024-03-23T01:31:58;19.88;;;6.47;;
62861;SDS011;48953;53.110;5.592;2024-03-23T01:34:24;24.33;;;6.32;;
62861;SDS011;48953;53.110;5.592;2024-03-23T01:36:50;21.67;;;6.35;;
62861;SDS011;48953;53.110;5.592;2024-03-23T01:39:16;21.10;;;5.80;;
62861;SDS011;48953;53.110;5.592;2024-03-23T01:41:42;24.80;;;6.40;;
62861;SDS011;48953;53.110;5.592;2024-03-23T01:44:09;24.80;;;6.22;;
62861;SDS011;48953;53.110;5.592;2024-03-23T01:46:36;23.63;;;5.43;;
62861;SDS011;48953;53.110;5.592;2024-03-23T01:49:02;24.20;;;5.93;;
62861;SDS011;48953;53.110;5.592;2024-03-23T01:51:29;23.98;;;6.13;;
62861;SDS011;48953;53.110;5.592;2024-03-23T01:53:55;25.58;;;5.72;;
62861;SDS011;48953;53.110;5.592;2024-03-23T01:56:22;27.00;;;5.50;;
62861;SDS011;48953;53.110;5.592;2024-03-23T01:58:48;20.80;;;5.90;;
62861;SDS011;48953;53.110;5.592;2024-03-23T02:01:15;22.23;;;5.25;;
62861;SDS011;48953;53.110;5.592;2024-03-23T02:03:41;20.42;;;4.55;;
62861;SDS011;48953;53.110;5.592;2024-03-23T02:06:07;19.25;;;5.20;;
62861;SDS011;48953;53.110;5.592;2024-03-23T02:08:33;24.48;;;5.03;;
62861;SDS011;48953;53.110;5.592;2024-03-23T02:11:00;21.95;;;5.60;;
62861;SDS011;48953;53.110;5.592;2024-03-23T02:13:26;28.80;;;4.63;;
62861;SDS011;48953;53.110;5.592;2024-03-23T02:15:52;22.17;;;4.70;;
62861;SDS011;48953;53.110;5.592;2024-03-23T02:18:18;19.80;;;5.15;;
62861;SDS011;48953;53.110;5.592;2024-03-23T02:20:44;26.58;;;4.97;;
62861;SDS011;48953;53.110;5.592;2024-03-23T02:23:16;23.45;;;4.70;;
62861;SDS011;48953;53.110;5.592;2024-03-23T02:25:45;29.95;;;5.00;;
62861;SDS011;48953;53.110;5.592;2024-03-23T02:28:12;24.33;;;5.15;;
62861;SDS011;48953;53.110;5.592;2024-03-23T02:30:38;22.13;;;5.28;;
62861;SDS011;48953;53.110;5.592;2024-03-23T02:33:04;25.88;;;4.30;;
62861;SDS011;48953;53.110;5.592;2024-03-23T02:35:30;26.08;;;4.78;;
62861;SDS011;48953;53.110;5.592;2024-03-23T02:37:56;27.02;;;5.35;;
62861;SDS011;48953;53.110;5.592;2024-03-23T02:40:22;29.35;;;5.20;;
62861;SDS011;48953;53.110;5.592;2024-03-23T02:42:49;22.48;;;4.75;;
62861;SDS011;48953;53.110;5.592;2024-03-23T02:45:15;26.48;;;4.75;;
62861;SDS011;48953;53.110;5.592;2024-03-23T02:47:41;27.70;;;5.47;;
62861;SDS011;48953;53.110;5.592;2024-03-23T02:50:07;26.73;;;5.18;;
62861;SDS011;48953;53.110;5.592;2024-03-23T02:52:34;26.40;;;4.68;;
62861;SDS011;48953;53.110;5.592;2024-03-23T02:55:00;29.15;;;5.35;;
62861;SDS011;48953;53.110;5.592;2024-03-23T02:57:27;26.90;;;5.07;;
62861;SDS011;48953;53.110;5.592;2024-03-23T02:59:53;28.75;;;5.22;;
62861;SDS011;48953;53.110;5.592;2024-03-23T03:02:19;25.50;;;4.93;;
62861;SDS011;48953;53.110;5.592;2024-03-23T03:04:46;21.85;;;4.78;;
62861;SDS011;48953;53.110;5.592;2024-03-23T03:07:12;24.58;;;4.72;;
62861;SDS011;48953;53.110;5.592;2024-03-23T03:09:38;24.50;;;4.95;;
62861;SDS011;48953;53.110;5.592;2024-03-23T03:12:05;26.88;;;5.05;;
62861;SDS011;48953;53.110;5.592;2024-03-23T03:14:31;34.58;;;5.57;;
62861;SDS011;48953;53.110;5.592;2024-03-23T03:16:57;26.77;;;4.72;;
62861;SDS011;48953;53.110;5.592;2024-03-23T03:19:23;29.23;;;4.45;;
62861;SDS011;48953;53.110;5.592;2024-03-23T03:21:49;23.65;;;4.18;;
62861;SDS011;48953;53.110;5.592;2024-03-23T03:24:15;28.55;;;4.90;;
62861;SDS011;48953;53.110;5.592;2024-03-23T03:26:42;28.65;;;4.75;;
62861;SDS011;48953;53.110;5.592;2024-03-23T03:29:08;26.92;;;5.30;;
62861;SDS011;48953;53.110;5.592;2024-03-23T03:31:34;24.80;;;4.38;;
62861;SDS011;48953;53.110;5.592;2024-03-23T03:34:00;22.30;;;4.30;;
62861;SDS011;48953;53.110;5.592;2024-03-23T03:36:26;23.15;;;4.60;;
62861;SDS011;48953;53.110;5.592;2024-03-23T03:38:52;25.45;;;4.05;;
62861;SDS011;48953;53.110;5.592;2024-03-23T03:41:18;29.23;;;4.35;;
62861;SDS011;48953;53.110;5.592;2024-03-23T03:43:44;22.60;;;4.72;;
62861;SDS011;48953;53.110;5.592;2024-03-23T03:46:10;28.48;;;4.45;;
62861;SDS011;48953;53.110;5.592;2024-03-23T03:48:37;24.95;;;4.13;;
62861;SDS011;48953;53.110;5.592;2024-03-23T03:51:03;25.52;;;3.95;;
62861;SDS011;48953;53.110;5.592;2024-03-23T03:53:29;23.63;;;4.13;;
62861;SDS011;48953;53.110;5.592;2024-03-23T03:55:56;24.45;;;4.22;;
62861;SDS011;48953;53.110;5.592;2024-03-23T03:58:22;20.25;;;3.97;;
62861;SDS011;48953;53.110;5.592;2024-03-23T04:00:48;19.95;;;3.53;;
62861;SDS011;48953;53.110;5.592;2024-03-23T04:03:14;21.17;;;4.18;;
62861;SDS011;48953;53.110;5.592;2024-03-23T04:05:40;20.20;;;4.07;;
62861;SDS011;48953;53.110;5.592;2024-03-23T04:08:07;27.33;;;4.13;;
62861;SDS011;48953;53.110;5.592;2024-03-23T04:10:33;15.20;;;3.67;;
62861;SDS011;48953;53.110;5.592;2024-03-23T04:12:59;23.00;;;4.10;;
62861;SDS011;48953;53.110;5.592;2024-03-23T04:15:26;25.20;;;3.97;;
62861;SDS011;48953;53.110;5.592;2024-03-23T04:17:52;18.15;;;3.55;;
62861;SDS011;48953;53.110;5.592;2024-03-23T04:20:18;19.02;;;3.67;;
62861;SDS011;48953;53.110;5.592;2024-03-23T04:22:44;18.15;;;3.47;;
62861;SDS011;48953;53.110;5.592;2024-03-23T04:25:10;15.35;;;3.53;;
62861;SDS011;48953;53.110;5.592;2024-03-23T04:27:36;13.32;;;3.65;;
62861;SDS011;48953;53.110;5.592;2024-03-23T04:30:02;13.52;;;3.50;;
62861;SDS011;48953;53.110;5.592;2024-03-23T04:32:30;16.75;;;3.78;;
62861;SDS011;48953;53.110;5.592;2024-03-23T04:34:56;17.70;;;4.03;;
62861;SDS011;48953;53.110;5.592;2024-03-23T04:37:22;21.48;;;4.43;;
62861;SDS011;48953;53.110;5.592;2024-03-23T04:39:48;15.65;;;4.38;;
62861;SDS011;48953;53.110;5.592;2024-03-23T04:42:15;16.60;;;3.92;;
62861;SDS011;48953;53.110;5.592;2024-03-23T04:44:41;18.02;;;4.30;;
62861;SDS011;48953;53.110;5.592;2024-03-23T04:47:07;14.32;;;3.92;;
62861;SDS011;48953;53.110;5.592;2024-03-23T04:49:33;19.65;;;4.82;;
62861;SDS011;48953;53.110;5.592;2024-03-23T04:52:02;22.08;;;5.28;;
62861;SDS011;48953;53.110;5.592;2024-03-23T04:54:28;22.40;;;5.43;;
62861;SDS011;48953;53.110;5.592;2024-03-23T04:56:54;20.85;;;4.68;;
62861;SDS011;48953;53.110;5.592;2024-03-23T04:59:20;21.35;;;4.47;;
62861;SDS011;48953;53.110;5.592;2024-03-23T05:01:46;21.10;;;4.50;;
62861;SDS011;48953;53.110;5.592;2024-03-23T05:04:12;20.38;;;5.07;;
62861;SDS011;48953;53.110;5.592;2024-03-23T05:06:38;20.25;;;5.05;;
62861;SDS011;48953;53.110;5.592;2024-03-23T05:09:04;19.88;;;4.65;;
62861;SDS011;48953;53.110;5.592;2024-03-23T05:11:36;15.55;;;4.50;;
62861;SDS011;48953;53.110;5.592;2024-03-23T05:14:03;22.23;;;5.40;;
62861;SDS011;48953;53.110;5.592;2024-03-23T05:16:29;18.77;;;4.75;;
62861;SDS011;48953;53.110;5.592;2024-03-23T05:18:55;14.70;;;5.05;;
62861;SDS011;48953;53.110;5.592;2024-03-23T05:21:21;21.83;;;6.28;;
62861;SDS011;48953;53.110;5.592;2024-03-23T05:23:47;22.75;;;5.90;;
62861;SDS011;48953;53.110;5.592;2024-03-23T05:26:13;18.67;;;5.80;;
62861;SDS011;48953;53.110;5.592;2024-03-23T05:28:39;19.25;;;5.38;;
62861;SDS011;48953;53.110;5.592;2024-03-23T05:31:05;15.25;;;4.78;;
62861;SDS011;48953;53.110;5.592;2024-03-23T05:33:31;18.80;;;4.57;;
62861;SDS011;48953;53.110;5.592;2024-03-23T05:35:57;20.88;;;4.40;;
62861;SDS011;48953;53.110;5.592;2024-03-23T05:38:24;15.50;;;4.35;;
62861;SDS011;48953;53.110;5.592;2024-03-23T05:40:59;13.52;;;4.20;;
62861;SDS011;48953;53.110;5.592;2024-03-23T05:43:25;14.68;;;4.57;;
62861;SDS011;48953;53.110;5.592;2024-03-23T05:45:57;14.00;;;3.88;;
62861;SDS011;48953;53.110;5.592;2024-03-23T05:48:23;17.48;;;3.78;;
62861;SDS011;48953;53.110;5.592;2024-03-23T05:50:49;14.85;;;3.00;;
62861;SDS011;48953;53.110;5.592;2024-03-23T05:53:16;11.50;;;2.45;;
62861;SDS011;48953;53.110;5.592;2024-03-23T05:55:42;10.30;;;2.35;;
62861;SDS011;48953;53.110;5.592;2024-03-23T05:58:08;5.70;;;1.73;;
62861;SDS011;48953;53.110;5.592;2024-03-23T06:00:35;9.48;;;2.03;;
62861;SDS011;48953;53.110;5.592;2024-03-23T06:03:01;12.02;;;2.25;;
62861;SDS011;48953;53.110;5.592;2024-03-23T06:05:27;11.07;;;2.50;;
62861;SDS011;48953;53.110;5.592;2024-03-23T06:07:53;10.52;;;2.75;;
62861;SDS011;48953;53.110;5.592;2024-03-23T06:10:19;10.43;;;3.00;;
62861;SDS011;48953;53.110;5.592;2024-03-23T06:12:48;10.45;;;2.92;;
62861;SDS011;48953;53.110;5.592;2024-03-23T06:15:17;10.88;;;3.15;;
62861;SDS011;48953;53.110;5.592;2024-03-23T06:17:43;16.27;;;3.78;;
62861;SDS011;48953;53.110;5.592;2024-03-23T06:20:09;14.10;;;4.35;;
62861;SDS011;48953;53.110;5.592;2024-03-23T06:22:35;16.75;;;3.95;;
62861;SDS011;48953;53.110;5.592;2024-03-23T06:25:02;16.42;;;4.03;;
62861;SDS011;48953;53.110;5.592;2024-03-23T06:27:28;16.35;;;4.65;;
62861;SDS011;48953;53.110;5.592;2024-03-23T06:29:54;15.25;;;4.53;;
62861;SDS011;48953;53.110;5.592;2024-03-23T06:32:20;17.73;;;5.40;;
62861;SDS011;48953;53.110;5.592;2024-03-23T06:34:46;17.25;;;5.68;;
62861;SDS011;48953;53.110;5.592;2024-03-23T06:37:12;20.70;;;5.00;;
62861;SDS011;48953;53.110;5.592;2024-03-23T06:39:38;22.00;;;5.20;;
62861;SDS011;48953;53.110;5.592;2024-03-23T06:42:04;20.80;;;4.97;;
62861;SDS011;48953;53.110;5.592;2024-03-23T06:44:31;20.63;;;4.22;;
62861;SDS011;48953;53.110;5.592;2024-03-23T06:46:57;21.98;;;4.45;;
62861;SDS011;48953;53.110;5.592;2024-03-23T06:49:23;15.45;;;4.07;;
62861;SDS011;48953;53.110;5.592;2024-03-23T06:51:49;20.30;;;4.70;;
62861;SDS011;48953;53.110;5.592;2024-03-23T06:54:19;23.65;;;4.88;;
62861;SDS011;48953;53.110;5.592;2024-03-23T06:56:45;18.23;;;5.28;;
62861;SDS011;48953;53.110;5.592;2024-03-23T06:59:11;15.65;;;4.88;;
62861;SDS011;48953;53.110;5.592;2024-03-23T07:01:37;19.08;;;4.75;;
62861;SDS011;48953;53.110;5.592;2024-03-23T07:04:03;19.95;;;5.05;;
62861;SDS011;48953;53.110;5.592;2024-03-23T07:06:30;17.20;;;4.97;;
62861;SDS011;48953;53.110;5.592;2024-03-23T07:08:56;14.98;;;4.50;;
62861;SDS011;48953;53.110;5.592;2024-03-23T07:11:22;13.25;;;3.88;;
62861;SDS011;48953;53.110;5.592;2024-03-23T07:13:51;19.15;;;4.93;;
62861;SDS011;48953;53.110;5.592;2024-03-23T07:16:19;14.45;;;4.30;;
62861;SDS011;48953;53.110;5.592;2024-03-23T07:18:45;18.15;;;4.15;;
62861;SDS011;48953;53.110;5.592;2024-03-23T07:21:12;22.25;;;4.18;;
62861;SDS011;48953;53.110;5.592;2024-03-23T07:23:38;16.55;;;3.45;;
62861;SDS011;48953;53.110;5.592;2024-03-23T07:26:09;15.30;;;3.70;;
62861;SDS011;48953;53.110;5.592;2024-03-23T07:28:35;16.88;;;3.67;;
62861;SDS011;48953;53.110;5.592;2024-03-23T07:31:02;15.82;;;3.45;;
62861;SDS011;48953;53.110;5.592;2024-03-23T07:33:29;16.88;;;3.30;;
62861;SDS011;48953;53.110;5.592;2024-03-23T07:35:55;15.13;;;3.20;;
62861;SDS011;48953;53.110;5.592;2024-03-23T07:38:21;17.65;;;3.13;;
62861;SDS011;48953;53.110;5.592;2024-03-23T07:40:47;14.35;;;3.47;;
62861;SDS011;48953;53.110;5.592;2024-03-23T07:43:19;12.80;;;2.53;;
62861;SDS011;48953;53.110;5.592;2024-03-23T07:45:50;13.18;;;2.40;;
62861;SDS011;48953;53.110;5.592;2024-03-23T07:48:17;9.23;;;2.33;;
62861;SDS011;48953;53.110;5.592;2024-03-23T07:50:43;7.22;;;2.03;;
62861;SDS011;48953;53.110;5.592;2024-03-23T07:53:09;12.32;;;2.42;;
62861;SDS011;48953;53.110;5.592;2024-03-23T07:55:35;8.10;;;1.63;;
62861;SDS011;48953;53.110;5.592;2024-03-23T07:58:01;12.88;;;2.42;;
62861;SDS011;48953;53.110;5.592;2024-03-23T08:00:27;9.93;;;1.95;;
62861;SDS011;48953;53.110;5.592;2024-03-23T08:02:53;9.40;;;2.72;;
62861;SDS011;48953;53.110;5.592;2024-03-23T08:05:19;10.05;;;2.03;;
62861;SDS011;48953;53.110;5.592;2024-03-23T08:07:45;14.10;;;2.08;;
62861;SDS011;48953;53.110;5.592;2024-03-23T08:10:11;6.00;;;1.70;;
62861;SDS011;48953;53.110;5.592;2024-03-23T08:12:37;9.93;;;2.03;;
62861;SDS011;48953;53.110;5.592;2024-03-23T08:15:04;11.23;;;2.20;;
62861;SDS011;48953;53.110;5.592;2024-03-23T08:17:30;7.22;;;1.85;;
62861;SDS011;48953;53.110;5.592;2024-03-23T08:19:56;7.45;;;1.65;;
62861;SDS011;48953;53.110;5.592;2024-03-23T08:22:22;11.57;;;2.13;;
62861;SDS011;48953;53.110;5.592;2024-03-23T08:24:48;10.95;;;2.25;;
62861;SDS011;48953;53.110;5.592;2024-03-23T08:27:14;6.80;;;1.70;;
62861;SDS011;48953;53.110;5.592;2024-03-23T08:29:40;8.13;;;1.70;;
62861;SDS011;48953;53.110;5.592;2024-03-23T08:32:06;4.50;;;1.27;;
62861;SDS011;48953;53.110;5.592;2024-03-23T08:34:32;6.53;;;1.25;;
62861;SDS011;48953;53.110;5.592;2024-03-23T08:36:58;6.93;;;1.38;;
62861;SDS011;48953;53.110;5.592;2024-03-23T08:39:24;8.43;;;1.40;;
62861;SDS011;48953;53.110;5.592;2024-03-23T08:41:50;6.38;;;1.10;;
62861;SDS011;48953;53.110;5.592;2024-03-23T08:44:16;6.88;;;1.10;;
62861;SDS011;48953;53.110;5.592;2024-03-23T08:46:42;7.28;;;1.50;;
62861;SDS011;48953;53.110;5.592;2024-03-23T08:49:08;7.95;;;1.35;;
62861;SDS011;48953;53.110;5.592;2024-03-23T08:51:34;4.63;;;1.00;;
62861;SDS011;48953;53.110;5.592;2024-03-23T08:54:00;7.45;;;1.40;;
62861;SDS011;48953;53.110;5.592;2024-03-23T08:56:26;4.38;;;1.00;;
62861;SDS011;48953;53.110;5.592;2024-03-23T08:58:52;6.05;;;1.27;;
62861;SDS011;48953;53.110;5.592;2024-03-23T09:01:18;4.25;;;1.20;;
62861;SDS011;48953;53.110;5.592;2024-03-23T09:03:44;6.70;;;1.30;;
62861;SDS011;48953;53.110;5.592;2024-03-23T09:06:11;8.32;;;1.65;;
62861;SDS011;48953;53.110;5.592;2024-03-23T09:08:37;8.68;;;1.45;;
62861;SDS011;48953;53.110;5.592;2024-03-23T09:11:07;6.72;;;1.40;;
62861;SDS011;48953;53.110;5.592;2024-03-23T09:13:35;9.10;;;2.20;;
62861;SDS011;48953;53.110;5.592;2024-03-23T09:16:01;9.10;;;1.48;;
62861;SDS011;48953;53.110;5.592;2024-03-23T09:18:27;7.60;;;1.60;;
62861;SDS011;48953;53.110;5.592;2024-03-23T09:20:53;8.85;;;1.83;;
62861;SDS011;48953;53.110;5.592;2024-03-23T09:23:21;9.85;;;1.85;;
62861;SDS011;48953;53.110;5.592;2024-03-23T09:25:47;8.90;;;1.58;;
62861;SDS011;48953;53.110;5.592;2024-03-23T09:28:13;10.60;;;1.75;;
62861;SDS011;48953;53.110;5.592;2024-03-23T09:30:39;12.18;;;1.90;;
62861;SDS011;48953;53.110;5.592;2024-03-23T09:33:11;9.05;;;2.10;;
62861;SDS011;48953;53.110;5.592;2024-03-23T09:35:38;11.93;;;2.53;;
62861;SDS011;48953;53.110;5.592;2024-03-23T09:38:04;7.70;;;1.55;;
62861;SDS011;48953;53.110;5.592;2024-03-23T09:40:32;11.95;;;1.77;;
62861;SDS011;48953;53.110;5.592;2024-03-23T09:42:58;6.10;;;1.88;;
62861;SDS011;48953;53.110;5.592;2024-03-23T09:45:27;8.45;;;2.10;;
62861;SDS011;48953;53.110;5.592;2024-03-23T09:47:57;7.35;;;1.60;;
62861;SDS011;48953;53.110;5.592;2024-03-23T09:50:23;8.40;;;1.60;;
62861;SDS011;48953;53.110;5.592;2024-03-23T09:52:49;7.97;;;1.80;;
62861;SDS011;48953;53.110;5.592;2024-03-23T09:55:15;8.52;;;1.70;;
62861;SDS011;48953;53.110;5.592;2024-03-23T09:57:41;7.43;;;1.40;;
62861;SDS011;48953;53.110;5.592;2024-03-23T10:00:08;7.97;;;1.63;;
62861;SDS011;48953;53.110;5.592;2024-03-23T10:02:34;9.90;;;1.75;;
62861;SDS011;48953;53.110;5.592;2024-03-23T10:05:01;6.50;;;1.30;;
62861;SDS011;48953;53.110;5.592;2024-03-23T10:07:27;6.07;;;1.38;;
62861;SDS011;48953;53.110;5.592;2024-03-23T10:09:56;4.28;;;1.00;;
62861;SDS011;48953;53.110;5.592;2024-03-23T10:12:22;2.17;;;0.50;;
62861;SDS011;48953;53.110;5.592;2024-03-23T10:14:49;4.00;;;0.77;;
62861;SDS011;48953;53.110;5.592;2024-03-23T10:17:19;6.28;;;1.00;;
62861;SDS011;48953;53.110;5.592;2024-03-23T10:22:14;5.53;;;0.98;;
62861;SDS011;48953;53.110;5.592;2024-03-23T10:24:40;5.57;;;1.00;;
62861;SDS011;48953;53.110;5.592;2024-03-23T10:27:07;6.68;;;1.83;;
62861;SDS011;48953;53.110;5.592;2024-03-23T10:29:33;7.25;;;1.77;;
62861;SDS011;48953;53.110;5.592;2024-03-23T10:32:08;10.13;;;2.28;;
62861;SDS011;48953;53.110;5.592;2024-03-23T10:34:35;11.10;;;1.58;;
62861;SDS011;48953;53.110;5.592;2024-03-23T10:37:02;9.38;;;1.50;;
62861;SDS011;48953;53.110;5.592;2024-03-23T10:39:35;8.90;;;1.40;;
62861;SDS011;48953;53.110;5.592;2024-03-23T10:42:05;9.85;;;1.55;;
62861;SDS011;48953;53.110;5.592;2024-03-23T10:44:32;10.75;;;1.85;;
62861;SDS011;48953;53.110;5.592;2024-03-23T10:46:58;9.90;;;1.60;;
62861;SDS011;48953;53.110;5.592;2024-03-23T10:49:26;9.75;;;1.67;;
62861;SDS011;48953;53.110;5.592;2024-03-23T10:51:54;7.43;;;2.20;;
62861;SDS011;48953;53.110;5.592;2024-03-23T10:54:20;8.50;;;1.40;;
62861;SDS011;48953;53.110;5.592;2024-03-23T10:56:47;10.35;;;2.13;;
62861;SDS011;48953;53.110;5.592;2024-03-23T10:59:14;8.75;;;1.92;;
62861;SDS011;48953;53.110;5.592;2024-03-23T11:01:58;10.52;;;2.35;;
62861;SDS011;48953;53.110;5.592;2024-03-23T11:04:37;7.00;;;1.40;;
62861;SDS011;48953;53.110;5.592;2024-03-23T11:07:27;8.57;;;1.67;;
62861;SDS011;48953;53.110;5.592;2024-03-23T11:09:53;15.40;;;3.03;;
62861;SDS011;48953;53.110;5.592;2024-03-23T11:14:48;10.02;;;2.05;;
62861;SDS011;48953;53.110;5.592;2024-03-23T11:17:18;8.25;;;1.92;;
62861;SDS011;48953;53.110;5.592;2024-03-23T11:19:44;13.80;;;2.30;;
62861;SDS011;48953;53.110;5.592;2024-03-23T11:22:10;10.98;;;2.65;;
62861;SDS011;48953;53.110;5.592;2024-03-23T11:24:36;12.18;;;2.03;;
62861;SDS011;48953;53.110;5.592;2024-03-23T11:27:15;9.00;;;2.13;;
62861;SDS011;48953;53.110;5.592;2024-03-23T11:29:41;12.27;;;2.45;;
62861;SDS011;48953;53.110;5.592;2024-03-23T11:32:07;11.63;;;2.42;;
62861;SDS011;48953;53.110;5.592;2024-03-23T11:34:36;10.45;;;2.25;;
62861;SDS011;48953;53.110;5.592;2024-03-23T11:37:04;5.25;;;1.52;;
62861;SDS011;48953;53.110;5.592;2024-03-23T11:39:31;8.27;;;1.70;;
62861;SDS011;48953;53.110;5.592;2024-03-23T11:41:57;8.77;;;2.10;;
62861;SDS011;48953;53.110;5.592;2024-03-23T11:44:27;9.80;;;2.78;;
62861;SDS011;48953;53.110;5.592;2024-03-23T11:49:27;9.13;;;2.20;;
62861;SDS011;48953;53.110;5.592;2024-03-23T11:51:54;2.28;;;0.80;;
62861;SDS011;48953;53.110;5.592;2024-03-23T11:54:21;5.75;;;1.33;;
62861;SDS011;48953;53.110;5.592;2024-03-23T11:56:54;6.65;;;1.92;;
62861;SDS011;48953;53.110;5.592;2024-03-23T11:59:39;6.05;;;1.40;;
62861;SDS011;48953;53.110;5.592;2024-03-23T12:02:05;6.07;;;1.30;;
62861;SDS011;48953;53.110;5.592;2024-03-23T12:04:32;10.60;;;1.70;;
62861;SDS011;48953;53.110;5.592;2024-03-23T12:07:12;9.25;;;2.20;;
62861;SDS011;48953;53.110;5.592;2024-03-23T12:09:38;12.05;;;2.47;;
62861;SDS011;48953;53.110;5.592;2024-03-23T12:12:11;14.68;;;2.50;;
62861;SDS011;48953;53.110;5.592;2024-03-23T12:14:40;16.85;;;3.08;;
62861;SDS011;48953;53.110;5.592;2024-03-23T12:17:13;14.90;;;2.55;;
62861;SDS011;48953;53.110;5.592;2024-03-23T12:19:39;12.02;;;2.03;;
62861;SDS011;48953;53.110;5.592;2024-03-23T12:22:06;12.95;;;2.53;;
62861;SDS011;48953;53.110;5.592;2024-03-23T12:24:32;8.90;;;3.05;;
62861;SDS011;48953;53.110;5.592;2024-03-23T12:27:02;11.52;;;3.05;;
62861;SDS011;48953;53.110;5.592;2024-03-23T12:29:30;7.45;;;1.85;;
62861;SDS011;48953;53.110;5.592;2024-03-23T12:31:58;11.18;;;2.13;;
62861;SDS011;48953;53.110;5.592;2024-03-23T12:34:25;12.85;;;2.65;;
62861;SDS011;48953;53.110;5.592;2024-03-23T12:36:51;14.25;;;2.83;;
62861;SDS011;48953;53.110;5.592;2024-03-23T12:39:17;9.77;;;2.13;;
62861;SDS011;48953;53.110;5.592;2024-03-23T12:41:43;11.93;;;2.33;;
62861;SDS011;48953;53.110;5.592;2024-03-23T12:44:09;16.70;;;3.47;;
62861;SDS011;48953;53.110;5.592;2024-03-23T12:46:37;12.55;;;2.35;;
62861;SDS011;48953;53.110;5.592;2024-03-23T12:49:03;8.98;;;1.77;;
62861;SDS011;48953;53.110;5.592;2024-03-23T12:51:30;10.55;;;1.80;;
62861;SDS011;48953;53.110;5.592;2024-03-23T12:53:56;7.75;;;1.73;;
62861;SDS011;48953;53.110;5.592;2024-03-23T12:56:22;5.38;;;1.10;;
62861;SDS011;48953;53.110;5.592;2024-03-23T12:58:48;8.35;;;1.60;;
62861;SDS011;48953;53.110;5.592;2024-03-23T13:01:16;8.85;;;1.80;;
62861;SDS011;48953;53.110;5.592;2024-03-23T13:03:42;5.63;;;1.30;;
62861;SDS011;48953;53.110;5.592;2024-03-23T13:06:11;11.40;;;2.25;;
62861;SDS011;48953;53.110;5.592;2024-03-23T13:08:37;9.35;;;2.00;;
62861;SDS011;48953;53.110;5.592;2024-03-23T13:11:03;9.43;;;2.20;;
62861;SDS011;48953;53.110;5.592;2024-03-23T13:13:29;12.10;;;1.90;;
62861;SDS011;48953;53.110;5.592;2024-03-23T13:15:56;12.82;;;2.08;;
62861;SDS011;48953;53.110;5.592;2024-03-23T13:18:22;12.30;;;1.58;;
62861;SDS011;48953;53.110;5.592;2024-03-23T13:20:48;8.48;;;1.70;;
62861;SDS011;48953;53.110;5.592;2024-03-23T13:23:14;9.40;;;1.58;;
62861;SDS011;48953;53.110;5.592;2024-03-23T13:25:40;11.95;;;1.83;;
62861;SDS011;48953;53.110;5.592;2024-03-23T13:28:06;10.07;;;2.00;;
62861;SDS011;48953;53.110;5.592;2024-03-23T13:30:34;8.38;;;1.48;;
62861;SDS011;48953;53.110;5.592;2024-03-23T13:33:00;8.07;;;1.52;;
62861;SDS011;48953;53.110;5.592;2024-03-23T13:35:26;9.23;;;1.48;;
62861;SDS011;48953;53.110;5.592;2024-03-23T13:37:52;11.40;;;2.40;;
62861;SDS011;48953;53.110;5.592;2024-03-23T13:40:18;10.30;;;2.10;;
62861;SDS011;48953;53.110;5.592;2024-03-23T13:42:45;9.18;;;2.28;;
62861;SDS011;48953;53.110;5.592;2024-03-23T13:45:11;10.90;;;2.10;;
62861;SDS011;48953;53.110;5.592;2024-03-23T13:47:37;8.90;;;1.98;;
62861;SDS011;48953;53.110;5.592;2024-03-23T13:50:03;12.15;;;2.03;;
62861;SDS011;48953;53.110;5.592;2024-03-23T13:52:29;10.07;;;2.03;;
62861;SDS011;48953;53.110;5.592;2024-03-23T13:54:56;9.63;;;2.17;;
62861;SDS011;48953;53.110;5.592;2024-03-23T13:57:22;7.68;;;1.65;;
62861;SDS011;48953;53.110;5.592;2024-03-23T13:59:51;7.60;;;1.70;;
62861;SDS011;48953;53.110;5.592;2024-03-23T14:02:16;8.95;;;1.83;;
62861;SDS011;48953;53.110;5.592;2024-03-23T14:04:43;10.98;;;2.03;;
62861;SDS011;48953;53.110;5.592;2024-03-23T14:07:09;10.52;;;2.45;;
62861;SDS011;48953;53.110;5.592;2024-03-23T14:09:35;7.70;;;2.45;;
62861;SDS011;48953;53.110;5.592;2024-03-23T14:12:01;14.98;;;3.05;;
62861;SDS011;48953;53.110;5.592;2024-03-23T14:14:28;12.25;;;3.53;;
62861;SDS011;48953;53.110;5.592;2024-03-23T14:16:53;13.23;;;2.35;;
62861;SDS011;48953;53.110;5.592;2024-03-23T14:19:20;14.07;;;3.05;;
62861;SDS011;48953;53.110;5.592;2024-03-23T14:21:46;10.40;;;2.10;;
62861;SDS011;48953;53.110;5.592;2024-03-23T14:24:12;14.68;;;2.55;;
62861;SDS011;48953;53.110;5.592;2024-03-23T14:26:38;8.80;;;2.17;;
62861;SDS011;48953;53.110;5.592;2024-03-23T14:29:06;9.18;;;1.75;;
62861;SDS011;48953;53.110;5.592;2024-03-23T14:31:34;5.13;;;1.38;;
62861;SDS011;48953;53.110;5.592;2024-03-23T14:34:00;11.35;;;2.33;;
62861;SDS011;48953;53.110;5.592;2024-03-23T14:36:26;8.10;;;2.60;;
62861;SDS011;48953;53.110;5.592;2024-03-23T14:38:52;10.75;;;2.30;;
62861;SDS011;48953;53.110;5.592;2024-03-23T14:41:18;9.13;;;2.10;;
62861;SDS011;48953;53.110;5.592;2024-03-23T14:43:44;10.43;;;1.98;;
62861;SDS011;48953;53.110;5.592;2024-03-23T14:46:13;16.00;;;2.13;;
62861;SDS011;48953;53.110;5.592;2024-03-23T14:48:40;10.70;;;1.95;;
62861;SDS011;48953;53.110;5.592;2024-03-23T14:51:07;10.25;;;2.00;;
62861;SDS011;48953;53.110;5.592;2024-03-23T14:53:34;12.85;;;2.03;;
62861;SDS011;48953;53.110;5.592;2024-03-23T14:56:01;6.93;;;1.83;;
62861;SDS011;48953;53.110;5.592;2024-03-23T14:58:27;9.02;;;1.55;;
62861;SDS011;48953;53.110;5.592;2024-03-23T15:00:59;8.40;;;1.42;;
62861;SDS011;48953;53.110;5.592;2024-03-23T15:03:25;10.18;;;1.80;;
62861;SDS011;48953;53.110;5.592;2024-03-23T15:05:55;7.65;;;1.70;;
62861;SDS011;48953;53.110;5.592;2024-03-23T15:08:21;9.55;;;2.00;;
62861;SDS011;48953;53.110;5.592;2024-03-23T15:10:47;9.68;;;2.10;;
62861;SDS011;48953;53.110;5.592;2024-03-23T15:13:13;5.30;;;1.40;;
62861;SDS011;48953;53.110;5.592;2024-03-23T15:15:43;7.95;;;1.80;;
62861;SDS011;48953;53.110;5.592;2024-03-23T15:18:13;7.78;;;1.95;;
62861;SDS011;48953;53.110;5.592;2024-03-23T15:20:40;5.07;;;1.23;;
62861;SDS011;48953;53.110;5.592;2024-03-23T15:23:06;5.80;;;1.40;;
62861;SDS011;48953;53.110;5.592;2024-03-23T15:25:32;8.20;;;1.50;;
62861;SDS011;48953;53.110;5.592;2024-03-23T15:27:58;7.20;;;2.20;;
62861;SDS011;48953;53.110;5.592;2024-03-23T15:30:25;12.50;;;3.45;;
62861;SDS011;48953;53.110;5.592;2024-03-23T15:32:51;7.68;;;2.30;;
62861;SDS011;48953;53.110;5.592;2024-03-23T15:35:17;6.70;;;2.20;;